Time,TemperatureF,DewpointF,PressureIn,WindDirection,WindDirectionDegrees,WindSpeedMPH,WindSpeedGustMPH,Humidity,HourlyPrecipIn,Conditions,Clouds,dailyrainin,SoftwareType,DateUTC
2013-05-08 00:03:00,54.1,48.8,29.70,East,100,2.3,2.3,82,0.00,-RA,FEW,0.00,WeatherDisplay:10.37,2013-05-07 23:03:00,
2013-05-08 00:08:00,54.1,48.8,29.70,East,100,3.5,3.5,82,0.00,-RA,FEW,0.00,WeatherDisplay:10.37,2013-05-07 23:08:00,
2013-05-08 00:13:00,54.1,49.1,29.70,ENE,78,3.5,3.5,83,0.00,-RA,FEW,0.00,WeatherDisplay:10.37,2013-05-07 23:13:00,
2013-05-08 00:18:00,54.1,49.1,29.70,East,100,0.0,0.5,83,0.00,-RA,FEW,0.00,WeatherDisplay:10.37,2013-05-07 23:18:00,
2013-05-08 00:23:00,54.0,48.9,29.69,ENE,78,0.0,0.2,83,0.00,-RA,FEW,0.00,WeatherDisplay:10.37,2013-05-07 23:23:00,
2013-05-08 00:28:00,54.0,48.9,29.69,East,100,0.0,0.0,83,0.00,-RA,FEW,0.00,WeatherDisplay:10.37,2013-05-07 23:28:00,
2013-05-08 00:33:00,54.1,49.1,29.69,ESE,122,0.0,0.0,83,0.00,-RA,FEW,0.00,WeatherDisplay:10.37,2013-05-07 23:33:00,
2013-05-08 00:38:00,54.1,49.4,29.69,ENE,78,2.8,2.8,84,0.00,-RA,FEW,0.00,WeatherDisplay:10.37,2013-05-07 23:38:00,
2013-05-08 00:43:00,54.1,49.4,29.67,SE,145,3.5,3.5,84,0.00,-RA,FEW,0.00,WeatherDisplay:10.37,2013-05-07 23:43:00,
2013-05-08 00:48:00,54.1,49.1,29.67,ESE,122,2.3,2.3,83,0.00,-RA,FEW,0.00,WeatherDisplay:10.37,2013-05-07 23:48:00,
2013-05-08 00:53:00,54.1,49.1,29.67,SE,145,1.2,1.2,83,0.00,-RA,FEW,0.00,WeatherDisplay:10.37,2013-05-07 23:53:00,
2013-05-08 00:58:00,54.0,48.9,29.67,ESE,122,1.4,1.4,83,0.00,-RA,FEW,0.00,WeatherDisplay:10.37,2013-05-07 23:58:00,
2013-05-08 01:03:00,54.1,49.4,29.67,ESE,122,1.2,1.2,84,0.00,CLR,FEW,0.00,WeatherDisplay:10.37,2013-05-08 00:03:00,
2013-05-08 01:08:00,53.8,49.1,29.67,SE,145,3.5,3.5,84,0.00,CLR,FEW,0.00,WeatherDisplay:10.37,2013-05-08 00:08:00,
2013-05-08 01:13:00,53.8,49.1,29.67,ENE,78,3.5,3.5,84,0.00,CLR,FEW,0.00,WeatherDisplay:10.37,2013-05-08 00:13:00,
2013-05-08 01:18:00,53.6,48.9,29.67,ENE,78,2.3,2.3,84,0.00,CLR,FEW,0.00,WeatherDisplay:10.37,2013-05-08 00:18:00,
2013-05-08 01:23:00,53.6,49.2,29.65,ENE,78,3.5,3.5,85,0.00,CLR,FEW,0.00,WeatherDisplay:10.37,2013-05-08 00:23:00,
2013-05-08 01:28:00,53.8,49.4,29.65,East,100,2.3,2.3,85,0.00,CLR,FEW,0.00,WeatherDisplay:10.37,2013-05-08 00:28:00,
2013-05-08 01:33:00,53.8,49.4,29.65,ESE,122,6.9,6.9,85,0.00,CLR,FEW,0.00,WeatherDisplay:10.37,2013-05-08 00:33:00,
2013-05-08 01:38:00,53.8,49.4,29.65,ENE,78,6.6,6.6,85,0.00,CLR,FEW,0.00,WeatherDisplay:10.37,2013-05-08 00:38:00,
2013-05-08 01:43:00,53.6,49.5,29.63,ENE,78,5.8,5.8,86,0.00,CLR,FEW,0.00,WeatherDisplay:10.37,2013-05-08 00:43:00,
2013-05-08 01:48:00,53.6,49.5,29.63,ENE,78,6.9,6.9,86,0.00,CLR,FEW,0.03,WeatherDisplay:10.37,2013-05-08 00:48:00,
2013-05-08 01:53:00,53.4,49.3,29.63,ENE,78,10.4,10.4,86,0.03,RA,FEW,0.03,WeatherDisplay:10.37,2013-05-08 00:53:00,
2013-05-08 01:58:00,53.4,49.6,29.63,ENE,78,5.8,5.8,87,0.03,RA,FEW,0.03,WeatherDisplay:10.37,2013-05-08 00:58:00,
2013-05-08 02:03:00,53.6,49.8,29.60,East,100,8.1,8.1,87,0.03,-RA,FEW,0.03,WeatherDisplay:10.37,2013-05-08 01:03:00,
2013-05-08 02:08:00,53.8,50.0,29.60,ENE,78,7.1,7.1,87,0.03,-RA,FEW,0.03,WeatherDisplay:10.37,2013-05-08 01:08:00,
2013-05-08 02:13:00,53.6,49.8,29.60,East,100,8.1,8.1,87,0.03,-RA,FEW,0.03,WeatherDisplay:10.37,2013-05-08 01:13:00,
2013-05-08 02:18:00,53.6,49.5,29.60,ESE,122,6.0,6.0,86,0.03,-RA,FEW,0.03,WeatherDisplay:10.37,2013-05-08 01:18:00,
2013-05-08 02:23:00,53.6,49.5,29.59,ENE,78,6.9,6.9,86,0.03,-RA,FEW,0.03,WeatherDisplay:10.37,2013-05-08 01:23:00,
2013-05-08 02:28:00,53.6,49.5,29.59,ENE,78,4.8,5.3,86,0.03,-RA,FEW,0.03,WeatherDisplay:10.37,2013-05-08 01:28:00,
2013-05-08 02:33:00,53.6,49.5,29.59,SSE,168,9.2,9.2,86,0.03,-RA,FEW,0.03,WeatherDisplay:10.37,2013-05-08 01:33:00,
2013-05-08 02:38:00,53.8,49.4,29.59,ENE,78,10.4,10.4,85,0.03,-RA,FEW,0.03,WeatherDisplay:10.37,2013-05-08 01:38:00,
2013-05-08 02:43:00,54.0,49.6,29.57,East,100,11.5,11.5,85,0.03,-RA,FEW,0.03,WeatherDisplay:10.37,2013-05-08 01:43:00,
2013-05-08 02:48:00,54.0,49.6,29.57,ESE,122,8.1,8.1,85,0.03,-RA,FEW,0.03,WeatherDisplay:10.37,2013-05-08 01:48:00,
2013-05-08 02:53:00,54.1,49.7,29.57,ESE,122,10.4,10.4,85,0.00,-RA,FEW,0.03,WeatherDisplay:10.37,2013-05-08 01:53:00,
2013-05-08 02:58:00,53.8,49.7,29.57,ESE,122,6.0,6.0,86,0.00,-RA,FEW,0.03,WeatherDisplay:10.37,2013-05-08 01:58:00,
2013-05-08 03:03:00,53.6,49.5,29.57,ENE,78,6.9,6.9,86,0.03,-RA,FEW,0.06,WeatherDisplay:10.37,2013-05-08 02:03:00,
2013-05-08 03:08:00,53.6,49.5,29.57,ENE,78,6.9,6.9,86,0.03,-RA,FEW,0.06,WeatherDisplay:10.37,2013-05-08 02:08:00,
2013-05-08 03:13:00,53.1,49.3,29.57,ESE,122,6.9,6.9,87,0.03,-RA,FEW,0.06,WeatherDisplay:10.37,2013-05-08 02:13:00,
2013-05-08 03:18:00,53.1,49.3,29.57,ESE,122,6.6,6.6,87,0.03,-RA,FEW,0.06,WeatherDisplay:10.37,2013-05-08 02:18:00,
2013-05-08 04:35:00,50.9,48.4,29.50,NNE,32,5.8,5.8,91,0.06,-RA,FEW,0.08,WeatherDisplay:10.37,2013-05-08 03:35:00,
2013-05-08 04:40:00,50.9,48.4,29.50,East,100,3.5,3.5,91,0.08,-RA,FEW,0.14,WeatherDisplay:10.37,2013-05-08 03:40:00,
2013-05-08 04:45:00,50.7,48.5,29.50,East,100,2.3,2.3,92,0.14,-RA,FEW,0.17,WeatherDisplay:10.37,2013-05-08 03:45:00,
2013-05-08 04:50:00,50.7,48.5,29.50,SE,145,5.9,5.9,92,0.14,-RA,FEW,0.17,WeatherDisplay:10.37,2013-05-08 03:50:00,
2013-05-08 04:55:00,50.5,48.3,29.50,East,100,7.1,7.1,92,0.17,-RA,FEW,0.19,WeatherDisplay:10.37,2013-05-08 03:55:00,
2013-05-08 05:00:00,50.5,48.6,29.47,ENE,78,10.1,10.1,93,0.17,-RA,FEW,0.19,WeatherDisplay:10.37,2013-05-08 04:00:00,
2013-05-08 05:01:00,50.5,48.6,29.47,ENE,78,10.4,10.4,93,0.17,-RA,FEW,0.19,WeatherDisplay:10.37,2013-05-08 04:01:00,
2013-05-08 05:06:00,50.5,48.6,29.47,ENE,78,8.1,8.1,93,0.14,-RA,FEW,0.19,WeatherDisplay:10.37,2013-05-08 04:06:00,
2013-05-08 05:11:00,50.5,48.6,29.47,ENE,78,11.5,11.5,93,0.14,-RA,FEW,0.19,WeatherDisplay:10.37,2013-05-08 04:11:00,
2013-05-08 05:16:00,50.4,48.4,29.47,ENE,78,8.1,8.1,93,0.17,-RA,FEW,0.22,WeatherDisplay:10.37,2013-05-08 04:16:00,
2013-05-08 05:21:00,50.5,48.6,29.45,ENE,78,8.1,8.2,93,0.17,-RA,FEW,0.22,WeatherDisplay:10.37,2013-05-08 04:21:00,
2013-05-08 05:26:00,50.4,48.4,29.45,East,100,9.2,9.2,93,0.17,-RA,FEW,0.22,WeatherDisplay:10.37,2013-05-08 04:26:00,
2013-05-08 05:31:00,50.4,48.4,29.45,SE,145,13.8,13.8,93,0.14,-RA,FEW,0.22,WeatherDisplay:10.37,2013-05-08 04:31:00,
2013-05-08 05:36:00,50.5,48.9,29.45,ENE,78,14.0,14.0,94,0.14,-RA,FEW,0.22,WeatherDisplay:10.37,2013-05-08 04:36:00,
2013-05-08 05:41:00,50.5,48.9,29.44,SSE,168,11.5,11.5,94,0.08,-RA,FEW,0.22,WeatherDisplay:10.37,2013-05-08 04:41:00,
2013-05-08 05:46:00,50.7,49.1,29.44,SE,145,10.4,10.4,94,0.06,-RA,FEW,0.22,WeatherDisplay:10.37,2013-05-08 04:46:00,
2013-05-08 05:51:00,50.7,49.1,29.44,ENE,78,15.0,15.0,94,0.06,-RA,FEW,0.22,WeatherDisplay:10.37,2013-05-08 04:51:00,
2013-05-08 05:56:00,50.7,49.1,29.44,East,100,9.3,9.3,94,0.03,-RA,FEW,0.22,WeatherDisplay:10.37,2013-05-08 04:56:00,
2013-05-08 06:01:00,50.7,49.1,29.42,ENE,78,9.2,9.2,94,0.03,BKN,FEW,0.22,WeatherDisplay:10.37,2013-05-08 05:01:00,
2013-05-08 06:06:00,50.7,49.1,29.42,ENE,78,9.2,9.2,94,0.03,BKN,FEW,0.22,WeatherDisplay:10.37,2013-05-08 05:06:00,
2013-05-08 06:11:00,50.7,49.1,29.42,ENE,78,9.2,9.2,94,0.03,BKN,FEW,0.22,WeatherDisplay:10.37,2013-05-08 05:11:00,
2013-05-08 06:16:00,50.5,48.9,29.42,East,100,6.9,7.4,94,0.03,RA,FEW,0.25,WeatherDisplay:10.37,2013-05-08 05:16:00,
2013-05-08 06:21:00,50.7,49.1,29.42,East,100,11.5,11.5,94,0.03,RA,FEW,0.25,WeatherDisplay:10.37,2013-05-08 05:21:00,
2013-05-08 06:26:00,50.9,49.5,29.42,ENE,78,11.5,11.5,95,0.03,BKN,FEW,0.25,WeatherDisplay:10.37,2013-05-08 05:26:00,
2013-05-08 06:31:00,50.9,49.5,29.42,ENE,78,10.4,10.4,95,0.03,BKN,FEW,0.25,WeatherDisplay:10.37,2013-05-08 05:31:00,
2013-05-08 06:36:00,50.9,49.5,29.42,ENE,78,9.2,9.2,95,0.03,BKN,FEW,0.25,WeatherDisplay:10.37,2013-05-08 05:36:00,
2013-05-08 06:41:00,50.9,49.5,29.39,ENE,78,18.7,18.7,95,0.03,BKN,FEW,0.25,WeatherDisplay:10.37,2013-05-08 05:41:00,
2013-05-08 06:46:00,51.3,49.9,29.39,East,100,13.8,13.8,95,0.03,BKN,FEW,0.25,WeatherDisplay:10.37,2013-05-08 05:46:00,
2013-05-08 06:51:00,51.1,49.7,29.39,SE,145,11.5,11.5,95,0.03,BKN,FEW,0.25,WeatherDisplay:10.37,2013-05-08 05:51:00,
2013-05-08 06:56:00,51.3,49.9,29.39,ENE,78,8.1,8.1,95,0.03,BKN,FEW,0.25,WeatherDisplay:10.37,2013-05-08 05:56:00,
2013-05-08 07:01:00,51.4,50.3,29.36,East,100,12.7,12.7,96,0.03,-RA,FEW,0.25,WeatherDisplay:10.37,2013-05-08 06:01:00,
2013-05-08 07:06:00,51.4,50.3,29.36,East,100,15.0,15.0,96,0.03,-RA,FEW,0.25,WeatherDisplay:10.37,2013-05-08 06:06:00,
2013-05-08 07:11:00,51.3,49.9,29.36,East,100,9.2,9.2,95,0.03,-RA,FEW,0.25,WeatherDisplay:10.37,2013-05-08 06:11:00,
2013-05-08 07:16:00,51.3,49.9,29.36,ENE,78,4.6,6.9,95,0.00,-RA,FEW,0.25,WeatherDisplay:10.37,2013-05-08 06:16:00,
2013-05-08 07:21:00,51.3,49.9,29.36,East,100,9.2,9.2,95,0.00,-RA,FEW,0.25,WeatherDisplay:10.37,2013-05-08 06:21:00,
2013-05-08 07:26:00,51.1,49.7,29.36,East,100,11.5,11.5,95,0.00,-RA,FEW,0.25,WeatherDisplay:10.37,2013-05-08 06:26:00,
2013-05-08 07:31:00,51.1,49.7,29.36,East,100,12.7,12.7,95,0.00,-RA,FEW,0.25,WeatherDisplay:10.37,2013-05-08 06:31:00,
2013-05-08 07:37:00,51.3,49.9,29.36,ENE,78,10.4,10.4,95,0.00,-RA,FEW,0.25,WeatherDisplay:10.37,2013-05-08 06:37:00,
2013-05-08 07:42:00,50.9,49.5,29.35,ENE,78,8.5,8.5,95,0.00,-RA,FEW,0.25,WeatherDisplay:10.37,2013-05-08 06:42:00,
2013-05-08 07:47:00,50.9,49.5,29.35,ENE,78,10.6,10.6,95,0.00,-RA,FEW,0.25,WeatherDisplay:10.37,2013-05-08 06:47:00,
2013-05-08 07:52:00,50.9,49.5,29.35,ESE,122,12.7,12.7,95,0.00,-RA,FEW,0.25,WeatherDisplay:10.37,2013-05-08 06:52:00,
2013-05-08 07:57:00,50.7,49.3,29.35,East,100,8.1,8.1,95,0.00,-RA,FEW,0.25,WeatherDisplay:10.37,2013-05-08 06:57:00,
2013-05-08 08:02:00,50.7,49.3,29.35,ENE,78,11.5,11.5,95,0.00,-RA,FEW,0.25,WeatherDisplay:10.37,2013-05-08 07:02:00,
2013-05-08 08:07:00,50.7,49.3,29.35,ENE,78,15.0,15.0,95,0.00,-RA,FEW,0.25,WeatherDisplay:10.37,2013-05-08 07:07:00,
2013-05-08 08:12:00,50.9,49.5,29.35,ENE,78,9.2,9.2,95,0.00,-RA,FEW,0.25,WeatherDisplay:10.37,2013-05-08 07:12:00,
2013-05-08 08:17:00,50.7,49.3,29.35,ENE,78,11.5,11.5,95,0.00,-RA,FEW,0.25,WeatherDisplay:10.37,2013-05-08 07:17:00,
2013-05-08 08:22:00,50.7,49.3,29.34,ESE,122,4.6,6.0,95,0.00,-RA,FEW,0.25,WeatherDisplay:10.37,2013-05-08 07:22:00,
2013-05-08 08:27:00,50.7,49.3,29.34,ENE,78,5.8,5.8,95,0.00,-RA,FEW,0.25,WeatherDisplay:10.37,2013-05-08 07:27:00,
2013-05-08 08:32:00,50.7,49.3,29.34,ESE,122,6.9,6.9,95,0.00,-RA,FEW,0.25,WeatherDisplay:10.37,2013-05-08 07:32:00,
2013-05-08 08:37:00,50.7,49.3,29.34,ESE,122,8.1,8.1,95,0.00,-RA,FEW,0.25,WeatherDisplay:10.37,2013-05-08 07:37:00,
2013-05-08 08:42:00,50.7,49.3,29.32,ENE,78,10.9,10.9,95,0.03,-RA,FEW,0.28,WeatherDisplay:10.37,2013-05-08 07:42:00,
2013-05-08 08:47:00,50.9,49.5,29.32,ESE,122,9.2,9.2,95,0.03,-RA,FEW,0.28,WeatherDisplay:10.37,2013-05-08 07:47:00,
2013-05-08 08:52:00,50.7,49.6,29.32,ENE,78,8.5,8.5,96,0.03,-RA,FEW,0.28,WeatherDisplay:10.37,2013-05-08 07:52:00,
2013-05-08 08:57:00,50.5,49.4,29.32,ENE,78,9.2,9.2,96,0.03,-RA,FEW,0.28,WeatherDisplay:10.37,2013-05-08 07:57:00,
2013-05-08 09:02:00,50.5,49.4,29.31,ESE,122,9.3,9.3,96,0.03,-RA,FEW,0.28,WeatherDisplay:10.37,2013-05-08 08:02:00,
2013-05-08 09:07:00,50.7,49.6,29.31,ENE,78,8.1,8.1,96,0.03,-RA,FEW,0.28,WeatherDisplay:10.37,2013-05-08 08:07:00,
2013-05-08 09:12:00,50.7,49.6,29.31,East,100,5.8,5.8,96,0.03,-RA,FEW,0.28,WeatherDisplay:10.37,2013-05-08 08:12:00,
2013-05-08 09:17:00,50.7,49.6,29.31,ENE,78,4.6,4.6,96,0.03,-RA,FEW,0.28,WeatherDisplay:10.37,2013-05-08 08:17:00,
2013-05-08 09:22:00,50.7,49.6,29.31,East,100,3.5,3.5,96,0.03,-RA,FEW,0.28,WeatherDisplay:10.37,2013-05-08 08:22:00,
2013-05-08 09:27:00,50.7,49.6,29.31,East,100,3.5,3.5,96,0.03,-RA,FEW,0.28,WeatherDisplay:10.37,2013-05-08 08:27:00,
2013-05-08 09:32:00,51.1,50.0,29.31,East,100,1.2,1.6,96,0.03,-RA,FEW,0.28,WeatherDisplay:10.37,2013-05-08 08:32:00,
2013-05-08 09:37:00,51.6,50.5,29.31,East,100,2.3,2.3,96,0.03,-RA,FEW,0.28,WeatherDisplay:10.37,2013-05-08 08:37:00,
2013-05-08 09:42:00,51.8,50.7,29.31,SE,145,3.5,3.5,96,0.00,-RA,FEW,0.28,WeatherDisplay:10.37,2013-05-08 08:42:00,
2013-05-08 09:47:00,52.2,51.1,29.31,ESE,122,2.3,2.3,96,0.00,-RA,FEW,0.28,WeatherDisplay:10.37,2013-05-08 08:47:00,
2013-05-08 09:52:00,52.7,51.6,29.31,SE,145,2.3,2.3,96,0.00,-RA,FEW,0.28,WeatherDisplay:10.37,2013-05-08 08:52:00,
2013-05-08 09:57:00,52.7,51.6,29.31,SE,145,3.6,3.6,96,0.00,-RA,FEW,0.28,WeatherDisplay:10.37,2013-05-08 08:57:00,
2013-05-08 10:02:00,52.9,51.8,29.31,SE,145,2.4,2.4,96,0.00,-DZ,FEW,0.28,WeatherDisplay:10.37,2013-05-08 09:02:00,
2013-05-08 10:07:00,53.1,52.0,29.31,ESE,122,3.5,3.5,96,0.00,-DZ,FEW,0.28,WeatherDisplay:10.37,2013-05-08 09:07:00,
2013-05-08 10:12:00,53.2,52.1,29.31,ESE,122,5.8,5.8,96,0.00,-DZ,FEW,0.28,WeatherDisplay:10.37,2013-05-08 09:12:00,
2013-05-08 10:17:00,53.6,52.8,29.31,West,280,11.7,11.7,97,0.00,-DZ,FEW,0.28,WeatherDisplay:10.37,2013-05-08 09:17:00,
2013-05-08 10:22:00,54.0,53.1,29.32,West,280,3.5,3.6,97,0.00,-DZ,FEW,0.28,WeatherDisplay:10.37,2013-05-08 09:22:00,
2013-05-08 10:27:00,54.1,53.3,29.32,ESE,122,12.7,12.7,97,0.00,-DZ,FEW,0.28,WeatherDisplay:10.37,2013-05-08 09:27:00,
2013-05-08 10:32:00,54.5,53.4,29.32,SE,145,4.6,5.7,96,0.00,-DZ,FEW,0.28,WeatherDisplay:10.37,2013-05-08 09:32:00,
2013-05-08 10:37:00,54.9,53.7,29.32,WSW,258,10.4,10.4,96,0.00,-DZ,FEW,0.28,WeatherDisplay:10.37,2013-05-08 09:37:00,
2013-05-08 10:42:00,55.0,53.9,29.33,SE,145,8.1,8.1,96,0.00,-DZ,FEW,0.28,WeatherDisplay:10.37,2013-05-08 09:42:00,
2013-05-08 10:47:00,55.2,54.1,29.33,ESE,122,13.8,13.8,96,0.00,-DZ,FEW,0.28,WeatherDisplay:10.37,2013-05-08 09:47:00,
2013-05-08 10:52:00,55.4,54.3,29.33,SE,145,9.2,9.2,96,0.00,-DZ,FEW,0.28,WeatherDisplay:10.37,2013-05-08 09:52:00,
2013-05-08 10:57:00,55.6,54.2,29.33,WSW,258,13.8,13.8,95,0.00,-DZ,FEW,0.28,WeatherDisplay:10.37,2013-05-08 09:57:00,
2013-05-08 11:02:00,55.4,54.0,29.36,SE,145,16.1,16.1,95,0.00,BKN,FEW,0.28,WeatherDisplay:10.37,2013-05-08 10:02:00,
2013-05-08 11:07:00,55.0,53.3,29.36,WSW,258,12.7,12.7,94,0.00,BKN,FEW,0.28,WeatherDisplay:10.37,2013-05-08 10:07:00,
2013-05-08 11:12:00,55.2,53.5,29.36,West,280,9.2,9.2,94,0.00,BKN,FEW,0.28,WeatherDisplay:10.37,2013-05-08 10:12:00,
2013-05-08 11:17:00,55.2,53.5,29.36,ESE,122,12.7,12.7,94,0.00,BKN,FEW,0.28,WeatherDisplay:10.37,2013-05-08 10:17:00,
2013-05-08 11:22:00,55.2,53.2,29.38,SE,145,11.5,11.5,93,0.00,BKN,FEW,0.28,WeatherDisplay:10.37,2013-05-08 10:22:00,
2013-05-08 11:27:00,55.2,53.2,29.38,West,280,15.0,15.0,93,0.00,BKN,FEW,0.28,WeatherDisplay:10.37,2013-05-08 10:27:00,
2013-05-08 11:33:00,55.2,53.2,29.38,SSW,212,9.2,9.2,93,0.00,BKN,FEW,0.28,WeatherDisplay:10.37,2013-05-08 10:33:00,
2013-05-08 11:38:00,55.6,53.6,29.38,ESE,122,11.5,11.5,93,0.00,BKN,FEW,0.28,WeatherDisplay:10.37,2013-05-08 10:38:00,
2013-05-08 11:43:00,55.4,53.1,29.39,West,280,12.7,12.7,92,0.00,BKN,FEW,0.28,WeatherDisplay:10.37,2013-05-08 10:43:00,
2013-05-08 11:48:00,55.2,52.9,29.39,West,280,2.3,6.3,92,0.00,BKN,FEW,0.28,WeatherDisplay:10.37,2013-05-08 10:48:00,
2013-05-08 11:53:00,55.4,53.1,29.39,WSW,258,10.4,10.4,92,0.00,BKN,FEW,0.28,WeatherDisplay:10.37,2013-05-08 10:53:00,
2013-05-08 11:58:00,55.9,53.6,29.39,ESE,122,6.9,6.9,92,0.00,BKN,FEW,0.28,WeatherDisplay:10.37,2013-05-08 10:58:00,
2013-05-08 12:03:00,55.8,53.2,29.41,NW,325,10.4,10.4,91,0.00,BKN,FEW,0.28,WeatherDisplay:10.37,2013-05-08 11:03:00,
2013-05-08 12:08:00,55.8,53.2,29.41,NW,325,9.2,9.2,91,0.00,BKN,FEW,0.28,WeatherDisplay:10.37,2013-05-08 11:08:00,
2013-05-08 12:13:00,56.7,53.8,29.41,SE,145,10.4,10.4,90,0.00,BKN,FEW,0.28,WeatherDisplay:10.37,2013-05-08 11:13:00,
2013-05-08 12:18:00,57.0,54.1,29.41,East,100,3.5,6.4,90,0.00,BKN,FEW,0.28,WeatherDisplay:10.37,2013-05-08 11:18:00,
2013-05-08 12:23:00,56.8,53.6,29.42,ESE,122,10.4,10.4,89,0.00,BKN,FEW,0.28,WeatherDisplay:10.37,2013-05-08 11:23:00,
2013-05-08 12:28:00,56.7,53.5,29.42,ENE,78,10.4,10.4,89,0.00,BKN,FEW,0.28,WeatherDisplay:10.37,2013-05-08 11:28:00,
2013-05-08 12:33:00,56.8,53.6,29.42,WSW,258,5.8,5.8,89,0.00,BKN,FEW,0.28,WeatherDisplay:10.37,2013-05-08 11:33:00,
2013-05-08 12:38:00,57.2,53.7,29.42,NW,325,11.5,11.5,88,0.00,BKN,FEW,0.28,WeatherDisplay:10.37,2013-05-08 11:38:00,
2013-05-08 12:43:00,57.2,53.4,29.42,ESE,122,8.6,8.6,87,0.00,BKN,FEW,0.28,WeatherDisplay:10.37,2013-05-08 11:43:00,
2013-05-08 12:48:00,57.2,53.4,29.42,SE,145,4.6,4.6,87,0.00,BKN,FEW,0.28,WeatherDisplay:10.37,2013-05-08 11:48:00,
2013-05-08 12:53:00,57.4,53.2,29.42,West,280,6.9,6.9,86,0.00,BKN,FEW,0.28,WeatherDisplay:10.37,2013-05-08 11:53:00,
2013-05-08 12:58:00,57.2,53.0,29.42,ESE,122,5.8,5.8,86,0.00,BKN,FEW,0.28,WeatherDisplay:10.37,2013-05-08 11:58:00,
2013-05-08 13:03:00,57.2,53.0,29.44,SE,145,5.8,5.8,86,0.00,BKN,FEW,0.28,WeatherDisplay:10.37,2013-05-08 12:03:00,
2013-05-08 13:08:00,57.2,53.0,29.44,SE,145,8.1,8.1,86,0.00,BKN,FEW,0.28,WeatherDisplay:10.37,2013-05-08 12:08:00,
2013-05-08 13:13:00,57.2,53.0,29.44,East,100,10.4,10.4,86,0.00,BKN,FEW,0.28,WeatherDisplay:10.37,2013-05-08 12:13:00,
2013-05-08 13:18:00,57.6,53.1,29.44,NW,325,6.9,6.9,85,0.00,BKN,FEW,0.28,WeatherDisplay:10.37,2013-05-08 12:18:00,
2013-05-08 13:23:00,57.7,53.3,29.44,SE,145,9.2,9.2,85,0.00,BKN,FEW,0.28,WeatherDisplay:10.37,2013-05-08 12:23:00,
2013-05-08 13:28:00,57.7,52.9,29.44,WSW,258,10.4,10.4,84,0.00,BKN,FEW,0.28,WeatherDisplay:10.37,2013-05-08 12:28:00,
2013-05-08 13:33:00,57.2,52.4,29.44,SE,145,8.1,8.1,84,0.00,BKN,FEW,0.28,WeatherDisplay:10.37,2013-05-08 12:33:00,
2013-05-08 13:38:00,57.9,53.4,29.44,WSW,258,8.1,8.1,85,0.00,BKN,FEW,0.28,WeatherDisplay:10.37,2013-05-08 12:38:00,
2013-05-08 13:43:00,58.6,54.1,29.44,ESE,122,10.4,10.4,85,0.00,BKN,FEW,0.28,WeatherDisplay:10.37,2013-05-08 12:43:00,
2013-05-08 13:48:00,59.2,53.7,29.44,ESE,122,6.3,6.3,82,0.00,BKN,FEW,0.28,WeatherDisplay:10.37,2013-05-08 12:48:00,
2013-05-08 13:53:00,59.5,53.7,29.44,ESE,122,16.5,16.5,81,0.00,BKN,FEW,0.28,WeatherDisplay:10.37,2013-05-08 12:53:00,
2013-05-08 13:58:00,60.3,54.1,29.44,West,280,8.1,8.1,80,0.00,BKN,FEW,0.28,WeatherDisplay:10.37,2013-05-08 12:58:00,
2013-05-08 14:03:00,60.6,54.8,29.45,NW,325,10.4,10.4,81,0.00,-DZ,FEW,0.28,WeatherDisplay:10.37,2013-05-08 13:03:00,
2013-05-08 14:08:00,61.0,54.4,29.45,WSW,258,10.4,10.4,79,0.00,-DZ,FEW,0.28,WeatherDisplay:10.37,2013-05-08 13:08:00,
2013-05-08 14:13:00,60.6,53.7,29.45,West,280,10.4,10.4,78,0.00,-DZ,FEW,0.28,WeatherDisplay:10.37,2013-05-08 13:13:00,
2013-05-08 14:18:00,61.2,54.6,29.45,East,100,7.6,7.6,79,0.00,-DZ,FEW,0.28,WeatherDisplay:10.37,2013-05-08 13:18:00,
2013-05-08 14:23:00,61.7,54.4,29.45,ESE,122,10.4,10.4,77,0.00,-DZ,FEW,0.28,WeatherDisplay:10.37,2013-05-08 13:23:00,
2013-05-08 14:28:00,62.2,54.2,29.45,North,10,17.3,17.3,75,0.00,-DZ,FEW,0.28,WeatherDisplay:10.37,2013-05-08 13:28:00,
2013-05-08 14:33:00,62.4,54.4,29.45,SE,145,10.4,10.4,75,0.00,-DZ,FEW,0.28,WeatherDisplay:10.37,2013-05-08 13:33:00,
2013-05-08 14:38:00,63.0,54.5,29.45,SE,145,8.1,8.1,74,0.00,-DZ,FEW,0.28,WeatherDisplay:10.37,2013-05-08 13:38:00,
2013-05-08 14:43:00,63.3,53.8,29.47,WSW,258,12.7,12.7,71,0.00,-DZ,FEW,0.28,WeatherDisplay:10.37,2013-05-08 13:43:00,
2013-05-08 14:48:00,63.1,52.8,29.47,SE,145,9.2,9.2,69,0.00,-DZ,FEW,0.28,WeatherDisplay:10.37,2013-05-08 13:48:00,
2013-05-08 14:53:00,63.5,53.1,29.47,SE,145,13.8,13.8,69,0.00,-DZ,FEW,0.28,WeatherDisplay:10.37,2013-05-08 13:53:00,
2013-05-08 14:58:00,64.0,52.9,29.47,SE,145,10.4,10.4,67,0.00,-DZ,FEW,0.28,WeatherDisplay:10.37,2013-05-08 13:58:00,
2013-05-08 15:03:00,64.0,52.4,29.47,SE,145,9.2,9.2,66,0.00,SCT,FEW,0.28,WeatherDisplay:10.37,2013-05-08 14:03:00,
2013-05-08 15:08:00,63.7,51.7,29.47,SE,145,2.3,7.5,65,0.00,SCT,FEW,0.28,WeatherDisplay:10.37,2013-05-08 14:08:00,
2013-05-08 15:13:00,63.1,51.6,29.47,SE,145,16.1,16.1,66,0.00,SCT,FEW,0.28,WeatherDisplay:10.37,2013-05-08 14:13:00,
2013-05-08 15:18:00,63.3,51.8,29.47,ESE,122,10.4,10.4,66,0.00,SCT,FEW,0.28,WeatherDisplay:10.37,2013-05-08 14:18:00,
2013-05-08 15:23:00,63.9,51.9,29.47,ESE,122,12.7,12.7,65,0.00,SCT,FEW,0.28,WeatherDisplay:10.37,2013-05-08 14:23:00,
2013-05-08 15:28:00,63.9,51.0,29.47,ESE,122,13.3,13.3,63,0.00,SCT,FEW,0.28,WeatherDisplay:10.37,2013-05-08 14:28:00,
2013-05-08 15:33:00,64.2,50.9,29.47,SE,145,16.1,16.1,62,0.00,SCT,FEW,0.28,WeatherDisplay:10.37,2013-05-08 14:33:00,
2013-05-08 15:38:00,63.7,50.4,29.47,SE,145,13.8,13.8,62,0.00,SCT,FEW,0.28,WeatherDisplay:10.37,2013-05-08 14:38:00,
2013-05-08 15:43:00,63.5,51.1,29.48,SE,145,9.2,9.2,64,0.00,SCT,FEW,0.28,WeatherDisplay:10.37,2013-05-08 14:43:00,
2013-05-08 15:48:00,63.1,49.5,29.48,SE,145,15.0,15.0,61,0.00,SCT,FEW,0.28,WeatherDisplay:10.37,2013-05-08 14:48:00,
2013-05-08 15:53:00,63.0,49.3,29.48,SE,145,20.7,20.7,61,0.00,SCT,FEW,0.28,WeatherDisplay:10.37,2013-05-08 14:53:00,
2013-05-08 15:58:00,63.5,50.2,29.48,SE,145,4.6,9.1,62,0.00,SCT,FEW,0.28,WeatherDisplay:10.37,2013-05-08 14:58:00,
2013-05-08 16:03:00,63.5,50.7,29.47,SE,145,9.2,9.2,63,0.00,SCT,FEW,0.28,WeatherDisplay:10.37,2013-05-08 15:03:00,
2013-05-08 16:08:00,63.5,50.2,29.47,SE,145,8.1,8.1,62,0.00,SCT,FEW,0.28,WeatherDisplay:10.37,2013-05-08 15:08:00,
2013-05-08 16:13:00,62.8,49.6,29.47,WSW,258,12.7,12.7,62,0.00,SCT,FEW,0.28,WeatherDisplay:10.37,2013-05-08 15:13:00,
2013-05-08 16:18:00,61.7,49.0,29.47,WNW,302,11.5,11.5,63,0.00,SCT,FEW,0.28,WeatherDisplay:10.37,2013-05-08 15:18:00,
2013-05-08 16:23:00,61.3,48.2,29.46,WSW,258,5.8,6.8,62,0.00,SCT,FEW,0.28,WeatherDisplay:10.37,2013-05-08 15:23:00,
2013-05-08 16:28:00,60.3,47.2,29.46,WSW,258,12.7,12.7,62,0.00,SCT,FEW,0.28,WeatherDisplay:10.37,2013-05-08 15:28:00,
2013-05-08 16:33:00,59.5,47.8,29.46,WNW,302,17.3,17.3,65,0.00,SCT,FEW,0.28,WeatherDisplay:10.37,2013-05-08 15:33:00,
2013-05-08 16:38:00,59.2,48.2,29.46,SE,145,5.8,6.9,67,0.00,SCT,FEW,0.28,WeatherDisplay:10.37,2013-05-08 15:38:00,
2013-05-08 16:43:00,59.2,48.2,29.47,WSW,258,8.1,8.1,67,0.00,SCT,FEW,0.28,WeatherDisplay:10.37,2013-05-08 15:43:00,
2013-05-08 16:48:00,59.0,48.4,29.47,WSW,258,11.0,11.0,68,0.00,SCT,FEW,0.28,WeatherDisplay:10.37,2013-05-08 15:48:00,
2013-05-08 16:53:00,59.2,49.0,29.47,ESE,122,10.4,10.4,69,0.00,SCT,FEW,0.28,WeatherDisplay:10.37,2013-05-08 15:53:00,
2013-05-08 16:58:00,58.6,48.5,29.47,SE,145,8.0,8.0,69,0.00,SCT,FEW,0.28,WeatherDisplay:10.37,2013-05-08 15:58:00,
2013-05-08 17:03:00,57.0,47.3,29.49,South,190,18.4,18.4,70,0.00,SCT,FEW,0.28,WeatherDisplay:10.37,2013-05-08 16:03:00,
2013-05-08 17:09:00,55.9,47.0,29.49,ESE,122,12.7,12.7,72,0.03,RA,FEW,0.30,WeatherDisplay:10.37,2013-05-08 16:09:00,
2013-05-08 17:14:00,54.5,46.7,29.49,SE,145,11.5,11.5,75,0.03,RA,FEW,0.30,WeatherDisplay:10.37,2013-05-08 16:14:00,
2013-05-08 17:19:00,54.3,46.6,29.49,SE,145,4.6,5.8,75,0.03,SCT,FEW,0.30,WeatherDisplay:10.37,2013-05-08 16:19:00,
2013-05-08 17:24:00,54.3,46.9,29.48,ESE,122,12.7,12.7,76,0.03,SCT,FEW,0.30,WeatherDisplay:10.37,2013-05-08 16:24:00,
2013-05-08 17:29:00,54.9,47.4,29.48,SE,145,5.8,5.9,76,0.03,SCT,FEW,0.30,WeatherDisplay:10.37,2013-05-08 16:29:00,
2013-05-08 17:34:00,54.9,47.1,29.48,West,280,17.3,17.3,75,0.03,SCT,FEW,0.30,WeatherDisplay:10.37,2013-05-08 16:34:00,
2013-05-08 17:39:00,55.0,46.9,29.48,ESE,122,16.1,16.1,74,0.03,SCT,FEW,0.30,WeatherDisplay:10.37,2013-05-08 16:39:00,
2013-05-08 17:44:00,55.4,46.9,29.48,ESE,122,10.4,10.4,73,0.03,SCT,FEW,0.30,WeatherDisplay:10.37,2013-05-08 16:44:00,
2013-05-08 17:49:00,55.6,47.1,29.48,SE,145,11.5,11.5,73,0.03,SCT,FEW,0.30,WeatherDisplay:10.37,2013-05-08 16:49:00,
2013-05-08 17:54:00,55.2,46.7,29.48,SE,145,11.5,11.5,73,0.03,SCT,FEW,0.30,WeatherDisplay:10.37,2013-05-08 16:54:00,
2013-05-08 17:59:00,55.6,47.1,29.48,SE,145,8.3,8.3,73,0.03,SCT,FEW,0.30,WeatherDisplay:10.37,2013-05-08 16:59:00,
2013-05-08 18:04:00,56.1,47.6,29.49,ESE,122,10.4,10.4,73,0.03,SCT,FEW,0.30,WeatherDisplay:10.37,2013-05-08 17:04:00,
2013-05-08 18:09:00,56.3,47.4,29.49,SE,145,8.1,8.1,72,0.00,SCT,FEW,0.30,WeatherDisplay:10.37,2013-05-08 17:09:00,
2013-05-08 18:14:00,56.5,47.2,29.49,SE,145,16.9,16.9,71,0.00,SCT,FEW,0.30,WeatherDisplay:10.37,2013-05-08 17:14:00,
2013-05-08 18:19:00,56.5,47.2,29.49,SE,145,12.0,12.0,71,0.00,SCT,FEW,0.30,WeatherDisplay:10.37,2013-05-08 17:19:00,
2013-05-08 18:24:00,56.3,46.3,29.49,SE,145,11.5,11.5,69,0.00,SCT,FEW,0.30,WeatherDisplay:10.37,2013-05-08 17:24:00,
2013-05-08 18:29:00,55.6,45.9,29.49,ESE,122,12.7,12.7,70,0.00,SCT,FEW,0.30,WeatherDisplay:10.37,2013-05-08 17:29:00,
2013-05-08 18:34:00,55.0,45.8,29.49,WSW,258,12.7,12.7,71,0.00,SCT,FEW,0.30,WeatherDisplay:10.37,2013-05-08 17:34:00,
2013-05-08 18:39:00,55.2,46.7,29.49,WSW,258,10.4,10.4,73,0.00,SCT,FEW,0.30,WeatherDisplay:10.37,2013-05-08 17:39:00,
2013-05-08 18:44:00,55.2,46.7,29.50,ESE,122,18.4,18.4,73,0.00,SCT,FEW,0.30,WeatherDisplay:10.37,2013-05-08 17:44:00,
2013-05-08 18:49:00,54.9,46.0,29.50,WSW,258,9.2,9.2,72,0.00,SCT,FEW,0.30,WeatherDisplay:10.37,2013-05-08 17:49:00,
2013-05-08 18:54:00,54.7,46.2,29.50,ESE,122,8.1,8.1,73,0.00,SCT,FEW,0.30,WeatherDisplay:10.37,2013-05-08 17:54:00,
2013-05-08 18:59:00,54.9,45.6,29.50,West,280,10.4,10.4,71,0.00,SCT,FEW,0.30,WeatherDisplay:10.37,2013-05-08 17:59:00,
2013-05-08 19:04:00,54.9,45.3,29.51,SE,145,5.8,7.8,70,0.00,BKN,FEW,0.30,WeatherDisplay:10.37,2013-05-08 18:04:00,
2013-05-08 19:09:00,54.9,45.3,29.51,ESE,122,10.4,10.4,70,0.00,BKN,FEW,0.30,WeatherDisplay:10.37,2013-05-08 18:09:00,
2013-05-08 19:14:00,54.9,45.3,29.51,WSW,258,6.9,6.9,70,0.00,BKN,FEW,0.30,WeatherDisplay:10.37,2013-05-08 18:14:00,
2013-05-08 19:19:00,54.1,44.6,29.51,SE,145,8.1,8.1,70,0.00,BKN,FEW,0.30,WeatherDisplay:10.37,2013-05-08 18:19:00,
2013-05-08 19:24:00,53.6,44.0,29.52,WSW,258,10.9,10.9,70,0.00,BKN,FEW,0.30,WeatherDisplay:10.37,2013-05-08 18:24:00,
2013-05-08 19:29:00,53.4,44.2,29.52,NW,325,11.5,11.5,71,0.00,BKN,FEW,0.30,WeatherDisplay:10.37,2013-05-08 18:29:00,
2013-05-08 19:34:00,52.7,43.9,29.52,West,280,13.9,13.9,72,0.00,BKN,FEW,0.30,WeatherDisplay:10.37,2013-05-08 18:34:00,
2013-05-08 19:39:00,52.7,43.9,29.52,WSW,258,6.9,6.9,72,0.00,BKN,FEW,0.30,WeatherDisplay:10.37,2013-05-08 18:39:00,
2013-05-08 19:44:00,52.7,43.9,29.51,West,280,6.9,6.9,72,0.00,BKN,FEW,0.30,WeatherDisplay:10.37,2013-05-08 18:44:00,
2013-05-08 19:49:00,52.5,43.8,29.51,SE,145,10.4,10.4,72,0.00,BKN,FEW,0.30,WeatherDisplay:10.37,2013-05-08 18:49:00,
2013-05-08 19:54:00,52.3,43.6,29.51,SE,145,5.8,6.4,72,0.00,BKN,FEW,0.30,WeatherDisplay:10.37,2013-05-08 18:54:00,
2013-05-08 19:59:00,52.3,43.9,29.51,ESE,122,18.4,18.4,73,0.00,BKN,FEW,0.30,WeatherDisplay:10.37,2013-05-08 18:59:00,
2013-05-08 20:04:00,52.0,43.6,29.51,West,280,5.8,6.6,73,0.00,SCT,FEW,0.30,WeatherDisplay:10.37,2013-05-08 19:04:00,
2013-05-08 20:09:00,51.8,43.4,29.51,NW,325,8.1,8.1,73,0.00,SCT,FEW,0.30,WeatherDisplay:10.37,2013-05-08 19:09:00,
2013-05-08 20:14:00,51.6,43.6,29.51,SE,145,6.9,6.9,74,0.00,SCT,FEW,0.30,WeatherDisplay:10.37,2013-05-08 19:14:00,
2013-05-08 20:19:00,51.6,44.0,29.51,SE,145,12.7,12.7,75,0.00,SCT,FEW,0.30,WeatherDisplay:10.37,2013-05-08 19:19:00,
2013-05-08 20:24:00,51.3,43.6,29.52,WSW,258,5.8,6.5,75,0.00,SCT,FEW,0.30,WeatherDisplay:10.37,2013-05-08 19:24:00,
2013-05-08 20:29:00,51.3,43.6,29.52,NW,325,8.1,8.1,75,0.00,SCT,FEW,0.30,WeatherDisplay:10.37,2013-05-08 19:29:00,
2013-05-08 20:34:00,50.7,42.4,29.52,West,280,17.3,17.3,73,0.00,SCT,FEW,0.30,WeatherDisplay:10.37,2013-05-08 19:34:00,
2013-05-08 20:39:00,50.7,42.4,29.52,WSW,258,9.2,9.2,73,0.00,SCT,FEW,0.30,WeatherDisplay:10.37,2013-05-08 19:39:00,
2013-05-08 20:44:00,50.4,42.0,29.52,ESE,122,8.1,8.1,73,0.00,SCT,FEW,0.30,WeatherDisplay:10.37,2013-05-08 19:44:00,
2013-05-08 20:49:00,50.4,42.4,29.52,WSW,258,10.5,10.5,74,0.00,SCT,FEW,0.30,WeatherDisplay:10.37,2013-05-08 19:49:00,
2013-05-08 20:54:00,50.2,42.2,29.52,ESE,122,9.2,9.2,74,0.00,SCT,FEW,0.30,WeatherDisplay:10.37,2013-05-08 19:54:00,
2013-05-08 20:59:00,50.0,42.0,29.52,ESE,122,5.8,5.8,74,0.00,SCT,FEW,0.30,WeatherDisplay:10.37,2013-05-08 19:59:00,
2013-05-08 21:04:00,49.8,41.9,29.52,ESE,122,6.9,6.9,74,0.00,SCT,FEW,0.30,WeatherDisplay:10.37,2013-05-08 20:04:00,
2013-05-08 21:09:00,49.8,42.2,29.52,ESE,122,8.1,8.1,75,0.00,SCT,FEW,0.30,WeatherDisplay:10.37,2013-05-08 20:09:00,
2013-05-08 21:14:00,49.6,42.4,29.52,SE,145,5.8,5.8,76,0.00,SCT,FEW,0.30,WeatherDisplay:10.37,2013-05-08 20:14:00,
2013-05-08 21:19:00,49.6,42.4,29.52,ESE,122,6.9,6.9,76,0.00,SCT,FEW,0.30,WeatherDisplay:10.37,2013-05-08 20:19:00,
2013-05-08 21:24:00,49.5,42.5,29.53,ESE,122,6.9,6.9,77,0.00,SCT,FEW,0.30,WeatherDisplay:10.37,2013-05-08 20:24:00,
2013-05-08 21:29:00,49.3,42.4,29.53,SE,145,6.9,6.9,77,0.00,SCT,FEW,0.30,WeatherDisplay:10.37,2013-05-08 20:29:00,
2013-05-08 21:34:00,49.1,42.5,29.53,SE,145,4.6,4.6,78,0.00,SCT,FEW,0.30,WeatherDisplay:10.37,2013-05-08 20:34:00,
2013-05-08 21:39:00,49.1,42.5,29.53,SE,145,6.9,6.9,78,0.00,SCT,FEW,0.30,WeatherDisplay:10.37,2013-05-08 20:39:00,
2013-05-08 21:44:00,49.1,42.5,29.54,SE,145,5.3,5.3,78,0.00,SCT,FEW,0.30,WeatherDisplay:10.37,2013-05-08 20:44:00,
2013-05-08 21:49:00,49.1,42.5,29.54,SE,145,6.9,6.9,78,0.00,SCT,FEW,0.30,WeatherDisplay:10.37,2013-05-08 20:49:00,
2013-05-08 21:54:00,49.1,42.2,29.54,SE,145,6.9,6.9,77,0.00,SCT,FEW,0.30,WeatherDisplay:10.37,2013-05-08 20:54:00,
2013-05-08 21:59:00,49.1,42.2,29.54,ESE,122,8.1,8.1,77,0.00,SCT,FEW,0.30,WeatherDisplay:10.37,2013-05-08 20:59:00,
2013-05-08 22:04:00,48.9,41.7,29.54,SE,145,6.9,6.9,76,0.00,FEW,,0.30,WeatherDisplay:10.37,2013-05-08 21:04:00,
2013-05-08 22:09:00,48.9,41.7,29.54,SE,145,11.5,11.5,76,0.00,FEW,,0.30,WeatherDisplay:10.37,2013-05-08 21:09:00,
2013-05-08 22:14:00,48.7,41.5,29.54,ESE,122,8.1,8.1,76,0.00,FEW,,0.30,WeatherDisplay:10.37,2013-05-08 21:14:00,
2013-05-08 22:19:00,48.6,41.3,29.54,WSW,258,8.1,8.1,76,0.00,FEW,,0.30,WeatherDisplay:10.37,2013-05-08 21:19:00,
2013-05-08 22:24:00,48.6,41.0,29.53,ESE,122,5.8,6.9,75,0.00,FEW,,0.30,WeatherDisplay:10.37,2013-05-08 21:24:00,
2013-05-08 22:30:00,48.7,41.2,29.53,SE,145,15.0,15.0,75,0.00,FEW,,0.30,WeatherDisplay:10.37,2013-05-08 21:30:00,
2013-05-08 22:35:00,48.6,41.0,29.53,West,280,10.4,10.4,75,0.00,FEW,,0.30,WeatherDisplay:10.37,2013-05-08 21:35:00,
2013-05-08 22:40:00,48.6,41.0,29.53,SE,145,8.1,8.1,75,0.00,FEW,,0.30,WeatherDisplay:10.37,2013-05-08 21:40:00,
2013-05-08 22:45:00,48.6,41.0,29.53,SE,145,11.5,11.5,75,0.00,FEW,,0.30,WeatherDisplay:10.37,2013-05-08 21:45:00,
2013-05-08 22:50:00,48.4,40.8,29.53,ESE,122,4.6,5.7,75,0.00,FEW,,0.30,WeatherDisplay:10.37,2013-05-08 21:50:00,
2013-05-08 22:55:00,48.4,40.5,29.53,SE,145,16.4,16.4,74,0.00,FEW,,0.30,WeatherDisplay:10.37,2013-05-08 21:55:00,
2013-05-08 23:00:00,48.6,40.6,29.53,SE,145,10.4,10.4,74,0.00,FEW,,0.30,WeatherDisplay:10.37,2013-05-08 22:00:00,
2013-05-08 23:05:00,48.6,41.0,29.52,SE,145,5.8,6.5,75,0.00,FEW,,0.30,WeatherDisplay:10.37,2013-05-08 22:05:00,
2013-05-08 23:10:00,48.6,41.0,29.52,SE,145,9.2,9.2,75,0.00,FEW,,0.30,WeatherDisplay:10.37,2013-05-08 22:10:00,
2013-05-08 23:15:00,48.4,40.8,29.52,SE,145,8.1,8.1,75,0.00,FEW,,0.30,WeatherDisplay:10.37,2013-05-08 22:15:00,
2013-05-08 23:20:00,48.4,40.8,29.52,SE,145,11.5,11.5,75,0.00,FEW,,0.30,WeatherDisplay:10.37,2013-05-08 22:20:00,
2013-05-08 23:25:00,48.4,40.8,29.51,SE,145,8.1,8.1,75,0.00,FEW,,0.30,WeatherDisplay:10.37,2013-05-08 22:25:00,
2013-05-08 23:30:00,48.4,40.8,29.51,SE,145,9.2,9.2,75,0.00,FEW,,0.30,WeatherDisplay:10.37,2013-05-08 22:30:00,
2013-05-08 23:35:00,48.4,40.5,29.51,ESE,122,12.7,12.7,74,0.00,FEW,,0.30,WeatherDisplay:10.37,2013-05-08 22:35:00,
2013-05-08 23:40:00,48.2,40.3,29.51,SSW,212,17.3,17.3,74,0.00,FEW,,0.30,WeatherDisplay:10.37,2013-05-08 22:40:00,
2013-05-08 23:45:00,48.4,40.1,29.50,SE,145,10.4,10.4,73,0.00,FEW,,0.30,WeatherDisplay:10.37,2013-05-08 22:45:00,
2013-05-08 23:50:00,48.4,40.1,29.50,SE,145,12.7,12.7,73,0.00,FEW,,0.30,WeatherDisplay:10.37,2013-05-08 22:50:00,
2013-05-08 23:55:00,48.2,39.9,29.50,SE,145,11.5,11.5,73,0.00,FEW,,0.30,WeatherDisplay:10.37,2013-05-08 22:55:00,